createdAt,value
2018-11-21T00:02:00.339Z,32.43
2018-11-21T00:04:28.929Z,32.45
2018-11-21T00:06:57.518Z,32.46
2018-11-21T00:09:26.110Z,32.45
2018-11-21T00:11:54.867Z,32.45
2018-11-21T00:14:23.495Z,32.44
2018-11-21T00:16:52.114Z,32.47
2018-11-21T00:19:20.804Z,32.44
2018-11-21T00:21:49.398Z,32.45
2018-11-21T00:24:18.261Z,32.43
2018-11-21T00:26:46.945Z,32.41
2018-11-21T00:29:15.524Z,32.43
2018-11-21T00:31:44.329Z,32.38
2018-11-21T00:34:12.950Z,32.37
2018-11-21T00:36:41.623Z,32.36
2018-11-21T00:39:11.246Z,32.33
2018-11-21T00:41:40.128Z,32.32
2018-11-21T00:44:08.729Z,32.31
2018-11-21T00:46:37.340Z,32.26
2018-11-21T00:49:05.998Z,32.22
2018-11-21T00:51:34.520Z,32.21
2018-11-21T00:54:03.176Z,32.19
2018-11-21T00:56:31.760Z,32.18
2018-11-21T00:59:00.369Z,32.15
2018-11-21T01:01:29.027Z,32.10
2018-11-21T01:03:57.598Z,32.05
2018-11-21T01:06:26.231Z,32.03
2018-11-21T01:08:54.903Z,32.00
2018-11-21T01:11:23.491Z,31.95
2018-11-21T01:13:52.138Z,31.89
2018-11-21T01:16:20.642Z,31.87
2018-11-21T01:18:49.303Z,31.80
2018-11-21T01:21:17.784Z,31.77
2018-11-21T01:23:46.360Z,31.72
2018-11-21T01:26:14.982Z,31.66
2018-11-21T01:28:43.522Z,31.59
2018-11-21T01:31:12.126Z,31.53
2018-11-21T01:33:40.743Z,31.48
2018-11-21T01:36:09.339Z,31.41
2018-11-21T01:38:37.952Z,31.37
2018-11-21T01:41:06.548Z,31.32
2018-11-21T01:43:35.106Z,31.28
2018-11-21T01:46:03.848Z,31.20
2018-11-21T01:48:32.460Z,31.13
2018-11-21T01:51:01.073Z,31.05
2018-11-21T01:53:29.648Z,31.00
2018-11-21T01:55:58.220Z,30.91
2018-11-21T01:58:26.893Z,30.86
2018-11-21T02:00:55.551Z,30.80
2018-11-21T02:03:24.446Z,30.74
2018-11-21T02:05:53.403Z,30.66
2018-11-21T02:08:22.021Z,30.57
2018-11-21T02:10:50.595Z,30.53
2018-11-21T02:13:19.183Z,30.46
2018-11-21T02:15:47.783Z,30.39
2018-11-21T02:18:16.358Z,30.30
2018-11-21T02:20:44.963Z,30.24
2018-11-21T02:23:13.601Z,30.18
2018-11-21T02:25:42.231Z,30.13
2018-11-21T02:28:10.832Z,30.09
2018-11-21T02:30:39.530Z,30.01
2018-11-21T02:33:08.112Z,29.95
2018-11-21T02:35:36.715Z,29.91
2018-11-21T02:38:05.307Z,29.88
2018-11-21T02:40:33.899Z,29.84
2018-11-21T02:43:02.471Z,29.79
2018-11-21T02:45:31.059Z,29.79
2018-11-21T02:47:59.664Z,29.74
2018-11-21T02:50:28.421Z,29.71
2018-11-21T02:52:56.972Z,29.64
2018-11-21T02:55:25.576Z,29.62
2018-11-21T02:57:54.210Z,29.57
2018-11-21T03:00:24.892Z,29.56
2018-11-21T03:02:53.500Z,29.52
2018-11-21T03:05:22.132Z,29.48
2018-11-21T03:07:55.004Z,29.47
2018-11-21T03:10:24.498Z,29.41
2018-11-21T03:12:53.146Z,29.38
2018-11-21T03:15:21.788Z,29.36
2018-11-21T03:17:50.397Z,29.32
2018-11-21T03:20:19.294Z,29.30
2018-11-21T03:22:48.152Z,29.26
2018-11-21T03:25:16.788Z,29.24
2018-11-21T03:27:45.397Z,29.22
2018-11-21T03:30:14.031Z,29.19
2018-11-21T03:32:42.874Z,29.17
2018-11-21T03:35:11.478Z,29.23
2018-11-21T03:37:40.095Z,29.32
2018-11-21T03:40:10.424Z,29.36
2018-11-21T03:42:39.525Z,29.40
2018-11-21T03:45:09.750Z,29.38
2018-11-21T03:47:38.338Z,29.38
2018-11-21T03:50:08.920Z,29.38
2018-11-21T03:52:37.789Z,29.37
2018-11-21T03:55:07.224Z,29.35
2018-11-21T03:57:36.191Z,29.34
2018-11-21T04:00:05.264Z,29.31
2018-11-21T04:02:33.781Z,29.29
2018-11-21T04:05:02.460Z,29.27
2018-11-21T04:07:31.087Z,29.26
2018-11-21T04:09:59.732Z,29.24
2018-11-21T04:12:28.468Z,29.21
2018-11-21T04:14:57.037Z,29.21
2018-11-21T04:17:25.625Z,29.20
2018-11-21T04:19:54.262Z,29.20
2018-11-21T04:22:22.818Z,29.19
2018-11-21T04:24:51.546Z,29.18
2018-11-21T04:27:20.142Z,29.18
2018-11-21T04:29:48.764Z,29.15
2018-11-21T04:32:17.394Z,29.14
2018-11-21T04:34:46.069Z,29.11
2018-11-21T04:37:14.652Z,29.10
2018-11-21T04:39:43.236Z,29.10
2018-11-21T04:42:11.884Z,29.09
2018-11-21T04:44:40.439Z,29.09
2018-11-21T04:47:09.013Z,29.07
2018-11-21T04:49:37.633Z,29.06
2018-11-21T04:52:06.256Z,29.05
2018-11-21T04:54:34.871Z,29.05
2018-11-21T04:57:03.568Z,29.04
2018-11-21T04:59:32.175Z,29.00
2018-11-21T05:02:00.750Z,29.02
2018-11-21T05:04:29.392Z,29.01
2018-11-21T05:06:57.999Z,29.01
2018-11-21T05:09:26.647Z,28.97
2018-11-21T05:11:55.341Z,28.96
2018-11-21T05:14:23.950Z,28.97
2018-11-21T05:16:52.572Z,28.95
2018-11-21T05:19:21.192Z,28.94
2018-11-21T05:21:49.782Z,28.90
2018-11-21T05:24:18.361Z,28.92
2018-11-21T05:26:46.920Z,28.89
2018-11-21T05:29:15.557Z,28.89
2018-11-21T05:31:44.141Z,28.89
2018-11-21T05:34:12.679Z,28.87
2018-11-21T05:36:41.262Z,28.89
2018-11-21T05:39:11.604Z,28.88
2018-11-21T05:41:40.319Z,28.88
2018-11-21T05:44:08.953Z,28.86
2018-11-21T05:46:37.650Z,28.84
2018-11-21T05:49:06.655Z,28.84
2018-11-21T05:51:35.368Z,28.82
2018-11-21T05:54:04.123Z,28.82
2018-11-21T05:56:32.728Z,28.80
2018-11-21T05:59:01.331Z,28.80
2018-11-21T06:01:29.912Z,28.78
2018-11-21T06:03:58.502Z,28.80
2018-11-21T06:06:27.069Z,28.81
2018-11-21T06:08:55.717Z,28.81
2018-11-21T06:11:24.330Z,28.77
2018-11-21T06:13:52.921Z,28.77
2018-11-21T06:16:21.470Z,28.78
2018-11-21T06:18:50.602Z,28.77
2018-11-21T06:21:19.179Z,28.78
2018-11-21T06:23:47.805Z,28.78
2018-11-21T06:26:16.406Z,28.77
2018-11-21T06:28:44.966Z,28.78
2018-11-21T06:31:13.530Z,28.78
2018-11-21T06:33:42.135Z,28.78
2018-11-21T06:36:10.791Z,28.77
2018-11-21T06:38:39.563Z,28.75
2018-11-21T06:41:08.400Z,28.75
2018-11-21T06:43:37.140Z,28.76
2018-11-21T06:46:06.020Z,28.75
2018-11-21T06:48:34.679Z,28.76
2018-11-21T06:51:03.243Z,28.73
2018-11-21T06:53:31.796Z,28.75
2018-11-21T06:56:00.390Z,28.77
2018-11-21T06:58:29.088Z,29.58
2018-11-21T07:00:57.606Z,30.14
2018-11-21T07:03:26.148Z,30.56
2018-11-21T07:05:54.831Z,30.99
2018-11-21T07:08:23.457Z,31.33
2018-11-21T07:10:52.015Z,31.47
2018-11-21T07:13:20.609Z,31.70
2018-11-21T07:15:49.261Z,31.82
2018-11-21T07:18:17.909Z,31.97
2018-11-21T07:20:46.519Z,32.10
2018-11-21T07:23:15.145Z,32.21
2018-11-21T07:25:43.711Z,32.27
2018-11-21T07:28:13.185Z,32.24
2018-11-21T07:30:41.029Z,32.45
2018-11-21T07:33:09.606Z,32.68
2018-11-21T07:35:38.180Z,32.76
2018-11-21T07:38:06.790Z,32.88
2018-11-21T07:40:35.419Z,32.86
2018-11-21T07:43:04.139Z,33.06
2018-11-21T07:45:32.999Z,33.30
2018-11-21T07:48:01.723Z,33.41
2018-11-21T07:50:30.444Z,33.64
2018-11-21T07:52:59.115Z,33.69
2018-11-21T07:55:27.720Z,33.70
2018-11-21T07:58:05.141Z,33.78
2018-11-21T08:00:43.599Z,33.82
2018-11-21T08:03:12.871Z,33.86
2018-11-21T08:05:44.447Z,33.88
2018-11-21T08:08:30.168Z,33.99
2018-11-21T08:11:23.433Z,34.04
2018-11-21T08:14:10.075Z,34.17
2018-11-21T08:16:57.692Z,34.39
2018-11-21T08:19:57.438Z,34.83
2018-11-21T08:22:43.945Z,35.11
2018-11-21T08:25:30.720Z,35.42
2018-11-21T08:28:16.874Z,35.80
2018-11-21T08:30:49.074Z,36.02
2018-11-21T08:33:17.732Z,36.20
2018-11-21T08:35:46.868Z,36.34
2018-11-21T08:38:16.137Z,36.57
2018-11-21T08:40:44.848Z,36.63
2018-11-21T08:43:13.507Z,36.70
2018-11-21T08:45:42.186Z,36.76
2018-11-21T08:48:11.171Z,36.88
2018-11-21T08:50:39.840Z,36.95
2018-11-21T08:53:09.119Z,36.92
2018-11-21T08:55:38.058Z,36.96
2018-11-21T08:58:08.184Z,36.95
2018-11-21T09:00:36.964Z,36.96
2018-11-21T09:03:06.170Z,36.96
2018-11-21T09:05:35.046Z,36.98
2018-11-21T09:08:03.930Z,36.98
2018-11-21T09:13:00.352Z,36.97
2018-11-21T09:15:29.038Z,36.99
2018-11-21T09:17:57.613Z,37.01
2018-11-21T09:20:26.263Z,37.02
2018-11-21T09:22:54.953Z,36.99
2018-11-21T09:25:23.596Z,36.98
2018-11-21T09:27:52.609Z,36.98
2018-11-21T09:30:22.136Z,36.92
2018-11-21T09:32:52.400Z,36.93
2018-11-21T09:35:21.099Z,36.94
2018-11-21T09:37:49.710Z,36.85
2018-11-21T09:40:19.877Z,36.86
2018-11-21T09:42:49.766Z,36.81
2018-11-21T09:45:19.728Z,36.80
2018-11-21T09:47:48.294Z,36.77
2018-11-21T09:50:22.205Z,36.72
2018-11-21T09:52:50.868Z,36.64
2018-11-21T09:55:19.519Z,36.61
2018-11-21T09:57:48.093Z,36.61
2018-11-21T10:00:53.856Z,36.56
2018-11-21T10:03:27.860Z,36.56
2018-11-21T10:05:59.234Z,36.46
2018-11-21T10:08:53.325Z,36.50
2018-11-21T10:11:22.295Z,36.51
2018-11-21T10:13:50.861Z,36.46
2018-11-21T10:16:19.746Z,36.46
2018-11-21T10:18:50.409Z,36.45
2018-11-21T10:21:20.979Z,36.43
2018-11-21T10:23:49.603Z,36.38
2018-11-21T10:26:18.287Z,36.39
2018-11-21T10:28:47.682Z,36.35
2018-11-21T10:31:16.358Z,36.26
2018-11-21T10:33:45.033Z,36.26
2018-11-21T10:36:13.995Z,36.24
2018-11-21T10:38:42.653Z,36.22
2018-11-21T10:41:11.479Z,36.19
2018-11-21T10:43:39.987Z,36.18
2018-11-21T10:46:08.814Z,36.15
2018-11-21T10:48:37.764Z,36.12
2018-11-21T10:51:06.404Z,36.11
2018-11-21T10:53:34.994Z,36.08
2018-11-21T10:56:03.821Z,36.09
2018-11-21T10:58:32.401Z,36.04
2018-11-21T11:01:19.175Z,36.03
2018-11-21T11:03:50.589Z,35.99
2018-11-21T11:06:38.621Z,35.95
2018-11-21T11:09:38.526Z,35.90
2018-11-21T11:12:22.995Z,35.88
2018-11-21T11:15:09.719Z,35.84
2018-11-21T11:17:52.733Z,35.82
2018-11-21T11:20:53.489Z,35.83
2018-11-21T11:23:59.192Z,35.76
2018-11-21T11:26:47.216Z,35.67
2018-11-21T11:29:40.857Z,35.71
2018-11-21T11:32:26.960Z,35.71
2018-11-21T11:35:13.703Z,35.67
2018-11-21T11:38:03.385Z,35.73
2018-11-21T11:40:49.531Z,35.73
2018-11-21T11:43:52.552Z,35.73
2018-11-21T11:46:43.280Z,35.72
2018-11-21T11:49:29.947Z,35.70
2018-11-21T11:52:23.646Z,35.72
2018-11-21T11:55:10.225Z,35.66
2018-11-21T11:57:56.547Z,35.71
2018-11-21T12:00:44.229Z,35.72
2018-11-21T12:03:38.025Z,35.70
2018-11-21T12:06:21.665Z,35.69
2018-11-21T12:09:14.960Z,35.70
2018-11-21T12:12:04.972Z,35.66
2018-11-21T12:14:57.528Z,35.63
2018-11-21T12:17:44.393Z,35.57
2018-11-21T12:20:50.395Z,35.60
2018-11-21T12:23:36.913Z,35.59
2018-11-21T12:26:18.191Z,35.52
2018-11-21T12:29:04.443Z,35.53
2018-11-21T12:32:07.656Z,35.55
2018-11-21T12:35:01.288Z,35.48
2018-11-21T12:37:47.514Z,35.54
2018-11-21T12:40:37.818Z,35.46
2018-11-21T12:43:24.530Z,35.44
2018-11-21T12:46:22.263Z,35.48
2018-11-21T12:49:06.287Z,35.43
2018-11-21T12:51:52.723Z,35.36
2018-11-21T12:54:52.269Z,35.42
2018-11-21T12:57:49.865Z,35.38
2018-11-21T13:00:40.414Z,35.33
2018-11-21T13:03:21.325Z,35.32
2018-11-21T13:06:12.113Z,35.34
2018-11-21T13:09:05.404Z,35.26
2018-11-21T13:11:55.374Z,35.27
2018-11-21T13:14:51.992Z,35.28
2018-11-21T13:17:32.627Z,35.20
2018-11-21T13:20:23.462Z,35.19
2018-11-21T13:23:09.810Z,35.13
2018-11-21T13:26:06.253Z,35.12
2018-11-21T13:29:17.170Z,35.13
2018-11-21T13:32:14.993Z,35.14
2018-11-21T13:35:02.672Z,35.10
2018-11-21T13:37:58.140Z,35.07
2018-11-21T13:40:44.607Z,35.09
2018-11-21T13:43:41.389Z,35.04
2018-11-21T13:46:26.162Z,35.01
2018-11-21T13:49:25.993Z,35.01
2018-11-21T13:52:13.932Z,35.02
2018-11-21T13:54:56.721Z,34.97
2018-11-21T13:57:25.591Z,34.98
2018-11-21T13:59:54.624Z,34.95
2018-11-21T14:02:23.383Z,34.96
2018-11-21T14:04:52.094Z,34.93
2018-11-21T14:07:20.721Z,34.88
2018-11-21T14:09:49.388Z,34.85
2018-11-21T14:12:18.132Z,34.90
2018-11-21T14:14:46.964Z,34.88
2018-11-21T14:17:15.891Z,34.83
2018-11-21T14:19:44.507Z,34.83
2018-11-21T14:22:13.194Z,34.78
2018-11-21T14:24:41.751Z,34.69
2018-11-21T14:27:10.420Z,34.67
2018-11-21T14:29:38.985Z,34.61
2018-11-21T14:32:07.626Z,34.59
2018-11-21T14:34:36.356Z,34.51
2018-11-21T14:37:05.039Z,34.46
2018-11-21T14:39:33.689Z,34.40
2018-11-21T14:42:02.449Z,34.36
2018-11-21T14:44:31.072Z,34.33
2018-11-21T14:47:00.069Z,34.29
2018-11-21T14:49:28.746Z,34.23
2018-11-21T14:51:57.354Z,34.19
2018-11-21T14:54:26.038Z,34.16
2018-11-21T14:56:54.632Z,34.13
2018-11-21T14:59:23.305Z,34.08
2018-11-21T15:01:51.934Z,34.06
2018-11-21T15:04:20.532Z,33.99
2018-11-21T15:06:49.134Z,33.97
2018-11-21T15:09:19.117Z,33.94
2018-11-21T15:11:47.759Z,33.90
2018-11-21T15:14:16.392Z,33.87
2018-11-21T15:16:45.040Z,33.83
2018-11-21T15:19:13.674Z,33.77
2018-11-21T15:21:42.342Z,33.77
2018-11-21T15:24:10.916Z,33.71
2018-11-21T15:26:40.579Z,33.68
2018-11-21T15:29:09.212Z,33.63
2018-11-21T15:31:37.851Z,33.59
2018-11-21T15:34:06.388Z,33.56
2018-11-21T15:36:34.998Z,33.53
2018-11-21T15:39:04.707Z,33.51
2018-11-21T15:41:33.344Z,33.46
2018-11-21T15:44:02.062Z,33.41
2018-11-21T15:46:30.706Z,33.39
2018-11-21T15:48:59.388Z,33.36
2018-11-21T15:51:28.039Z,33.32
2018-11-21T15:53:56.622Z,33.27
2018-11-21T15:56:25.164Z,33.21
2018-11-21T15:58:53.762Z,33.18
2018-11-21T16:01:22.328Z,33.13
2018-11-21T16:03:50.891Z,33.09
2018-11-21T16:06:19.743Z,33.04
2018-11-21T16:08:48.535Z,33.05
2018-11-21T16:11:17.119Z,32.98
2018-11-21T16:13:47.674Z,32.91
2018-11-21T16:16:16.322Z,32.88
2018-11-21T16:18:44.915Z,32.84
2018-11-21T16:21:13.615Z,32.80
2018-11-21T16:23:42.253Z,32.74
2018-11-21T16:26:12.256Z,32.70
2018-11-21T16:28:40.863Z,32.63
2018-11-21T16:31:09.419Z,32.61
2018-11-21T16:33:38.005Z,32.58
2018-11-21T16:36:06.666Z,32.54
2018-11-21T16:38:35.262Z,32.51
2018-11-21T16:41:03.809Z,32.49
2018-11-21T16:43:32.454Z,32.48
2018-11-21T16:46:01.081Z,32.49
2018-11-21T16:48:29.726Z,32.46
2018-11-21T16:50:58.417Z,32.41
2018-11-21T16:53:27.055Z,32.39
2018-11-21T16:55:55.691Z,32.39
2018-11-21T16:58:24.280Z,32.34
2018-11-21T17:00:52.923Z,32.29
2018-11-21T17:03:21.460Z,32.27
2018-11-21T17:05:50.124Z,32.26
2018-11-21T17:08:19.216Z,32.23
2018-11-21T17:10:48.197Z,32.16
2018-11-21T17:13:17.203Z,32.11
2018-11-21T17:15:45.822Z,32.08
2018-11-21T17:18:14.403Z,31.99
2018-11-21T17:20:44.220Z,31.98
2018-11-21T17:23:12.862Z,31.93
2018-11-21T17:25:42.165Z,31.86
2018-11-21T17:28:10.757Z,31.83
2018-11-21T17:30:39.444Z,31.82
2018-11-21T17:33:08.078Z,31.79
